sensor_id;sensor_type;location;lat;lon;timestamp;temperature;humidity
30399;DHT22;17195;50.838;7.214;2023-09-19T00:02:02;18.10;99.90
30399;DHT22;17195;50.838;7.214;2023-09-19T00:04:32;18.10;99.90
30399;DHT22;17195;50.838;7.214;2023-09-19T00:06:58;18.10;99.90
30399;DHT22;17195;50.838;7.214;2023-09-19T00:09:24;18.10;99.90
30399;DHT22;17195;50.838;7.214;2023-09-19T00:11:53;18.00;99.90
30399;DHT22;17195;50.838;7.214;2023-09-19T00:14:19;18.00;99.90
30399;DHT22;17195;50.838;7.214;2023-09-19T00:16:44;17.90;99.90
30399;DHT22;17195;50.838;7.214;2023-09-19T00:19:12;17.90;99.90
30399;DHT22;17195;50.838;7.214;2023-09-19T00:21:38;17.90;99.90
30399;DHT22;17195;50.838;7.214;2023-09-19T00:24:06;17.90;99.90
30399;DHT22;17195;50.838;7.214;2023-09-19T00:26:32;17.90;99.90
30399;DHT22;17195;50.838;7.214;2023-09-19T00:28:59;17.80;99.90
30399;DHT22;17195;50.838;7.214;2023-09-19T00:31:30;17.80;99.90
30399;DHT22;17195;50.838;7.214;2023-09-19T00:33:56;17.80;99.90
30399;DHT22;17195;50.838;7.214;2023-09-19T00:36:27;17.80;99.90
30399;DHT22;17195;50.838;7.214;2023-09-19T00:38:54;17.80;99.90
30399;DHT22;17195;50.838;7.214;2023-09-19T00:41:20;17.70;99.90
30399;DHT22;17195;50.838;7.214;2023-09-19T00:43:46;17.70;99.90
30399;DHT22;17195;50.838;7.214;2023-09-19T00:46:16;17.70;99.90
30399;DHT22;17195;50.838;7.214;2023-09-19T00:48:42;17.70;99.90
30399;DHT22;17195;50.838;7.214;2023-09-19T00:51:09;17.70;99.90
30399;DHT22;17195;50.838;7.214;2023-09-19T00:53:35;17.70;99.90
30399;DHT22;17195;50.838;7.214;2023-09-19T00:56:02;17.60;99.90
30399;DHT22;17195;50.838;7.214;2023-09-19T00:58:31;17.60;99.90
30399;DHT22;17195;50.838;7.214;2023-09-19T01:00:59;17.60;99.90
30399;DHT22;17195;50.838;7.214;2023-09-19T01:03:24;17.60;99.90
30399;DHT22;17195;50.838;7.214;2023-09-19T01:05:50;17.60;99.90
30399;DHT22;17195;50.838;7.214;2023-09-19T01:08:16;17.60;99.90
30399;DHT22;17195;50.838;7.214;2023-09-19T01:11:21;17.60;99.90
30399;DHT22;17195;50.838;7.214;2023-09-19T01:16:42;17.70;99.90
30399;DHT22;17195;50.838;7.214;2023-09-19T01:30:32;17.90;99.90
30399;DHT22;17195;50.838;7.214;2023-09-19T01:32:59;17.90;99.90
30399;DHT22;17195;50.838;7.214;2023-09-19T01:35:25;17.90;99.90
30399;DHT22;17195;50.838;7.214;2023-09-19T01:37:51;17.90;99.90
30399;DHT22;17195;50.838;7.214;2023-09-19T01:40:20;18.00;99.90
30399;DHT22;17195;50.838;7.214;2023-09-19T01:43:08;18.00;99.90
30399;DHT22;17195;50.838;7.214;2023-09-19T01:45:59;18.00;99.90
30399;DHT22;17195;50.838;7.214;2023-09-19T01:51:16;18.00;99.90
30399;DHT22;17195;50.838;7.214;2023-09-19T01:53:53;18.10;99.90
30399;DHT22;17195;50.838;7.214;2023-09-19T01:56:36;18.10;99.90
30399;DHT22;17195;50.838;7.214;2023-09-19T01:59:10;18.10;99.90
30399;DHT22;17195;50.838;7.214;2023-09-19T02:01:39;18.10;99.90
30399;DHT22;17195;50.838;7.214;2023-09-19T02:04:06;18.10;99.90
30399;DHT22;17195;50.838;7.214;2023-09-19T02:06:32;18.10;99.90
30399;DHT22;17195;50.838;7.214;2023-09-19T02:08:59;18.10;99.90
30399;DHT22;17195;50.838;7.214;2023-09-19T02:11:25;18.10;99.90
30399;DHT22;17195;50.838;7.214;2023-09-19T02:13:51;18.10;99.90
30399;DHT22;17195;50.838;7.214;2023-09-19T02:16:20;18.00;99.90
30399;DHT22;17195;50.838;7.214;2023-09-19T02:18:49;18.00;99.90
30399;DHT22;17195;50.838;7.214;2023-09-19T02:21:15;18.00;99.90
30399;DHT22;17195;50.838;7.214;2023-09-19T02:23:43;18.00;99.90
30399;DHT22;17195;50.838;7.214;2023-09-19T02:26:09;17.90;99.90
30399;DHT22;17195;50.838;7.214;2023-09-19T02:28:34;17.80;99.90
30399;DHT22;17195;50.838;7.214;2023-09-19T02:31:01;17.80;99.90
30399;DHT22;17195;50.838;7.214;2023-09-19T02:33:27;17.70;99.90
30399;DHT22;17195;50.838;7.214;2023-09-19T02:35:56;17.70;99.90
30399;DHT22;17195;50.838;7.214;2023-09-19T02:38:26;17.60;99.90
30399;DHT22;17195;50.838;7.214;2023-09-19T02:40:52;17.60;99.90
30399;DHT22;17195;50.838;7.214;2023-09-19T02:43:18;17.50;99.90
30399;DHT22;17195;50.838;7.214;2023-09-19T02:45:45;17.50;99.90
30399;DHT22;17195;50.838;7.214;2023-09-19T02:48:12;17.50;99.90
30399;DHT22;17195;50.838;7.214;2023-09-19T02:50:38;17.40;99.90
30399;DHT22;17195;50.838;7.214;2023-09-19T02:53:05;17.40;99.90
30399;DHT22;17195;50.838;7.214;2023-09-19T02:55:32;17.30;99.90
30399;DHT22;17195;50.838;7.214;2023-09-19T02:57:57;17.30;99.90
30399;DHT22;17195;50.838;7.214;2023-09-19T03:00:23;17.30;99.90
30399;DHT22;17195;50.838;7.214;2023-09-19T03:02:49;17.20;99.90
30399;DHT22;17195;50.838;7.214;2023-09-19T03:05:15;17.20;99.90
30399;DHT22;17195;50.838;7.214;2023-09-19T03:07:41;17.20;99.90
30399;DHT22;17195;50.838;7.214;2023-09-19T03:10:09;17.20;99.90
30399;DHT22;17195;50.838;7.214;2023-09-19T03:12:35;17.20;99.90
30399;DHT22;17195;50.838;7.214;2023-09-19T03:15:01;17.10;99.90
30399;DHT22;17195;50.838;7.214;2023-09-19T03:17:26;17.10;99.90
30399;DHT22;17195;50.838;7.214;2023-09-19T03:19:52;17.10;99.90
30399;DHT22;17195;50.838;7.214;2023-09-19T03:22:19;17.10;99.90
30399;DHT22;17195;50.838;7.214;2023-09-19T03:24:45;17.00;99.90
30399;DHT22;17195;50.838;7.214;2023-09-19T03:27:12;17.00;99.90
30399;DHT22;17195;50.838;7.214;2023-09-19T03:29:39;16.90;99.90
30399;DHT22;17195;50.838;7.214;2023-09-19T03:32:05;16.90;99.90
30399;DHT22;17195;50.838;7.214;2023-09-19T03:34:31;16.80;99.90
30399;DHT22;17195;50.838;7.214;2023-09-19T03:36:57;16.70;99.90
30399;DHT22;17195;50.838;7.214;2023-09-19T03:39:22;16.70;99.90
30399;DHT22;17195;50.838;7.214;2023-09-19T03:41:48;16.60;99.90
30399;DHT22;17195;50.838;7.214;2023-09-19T03:44:15;16.60;99.90
30399;DHT22;17195;50.838;7.214;2023-09-19T03:46:40;16.60;99.90
30399;DHT22;17195;50.838;7.214;2023-09-19T03:49:06;16.50;99.90
30399;DHT22;17195;50.838;7.214;2023-09-19T03:51:31;16.40;99.90
30399;DHT22;17195;50.838;7.214;2023-09-19T03:53:59;16.40;99.90
30399;DHT22;17195;50.838;7.214;2023-09-19T03:56:25;16.40;99.90
30399;DHT22;17195;50.838;7.214;2023-09-19T03:58:51;16.40;99.90
30399;DHT22;17195;50.838;7.214;2023-09-19T04:01:16;16.20;99.90
30399;DHT22;17195;50.838;7.214;2023-09-19T04:03:43;16.20;99.90
30399;DHT22;17195;50.838;7.214;2023-09-19T04:06:16;16.10;99.90
30399;DHT22;17195;50.838;7.214;2023-09-19T04:08:42;16.10;99.90
30399;DHT22;17195;50.838;7.214;2023-09-19T04:11:08;16.10;99.90
30399;DHT22;17195;50.838;7.214;2023-09-19T04:13:34;16.00;99.90
30399;DHT22;17195;50.838;7.214;2023-09-19T04:16:00;15.90;99.90
30399;DHT22;17195;50.838;7.214;2023-09-19T04:18:26;16.00;99.90
30399;DHT22;17195;50.838;7.214;2023-09-19T04:20:52;15.90;99.90
30399;DHT22;17195;50.838;7.214;2023-09-19T04:23:18;15.90;99.90
30399;DHT22;17195;50.838;7.214;2023-09-19T04:25:45;15.80;99.90
30399;DHT22;17195;50.838;7.214;2023-09-19T04:28:11;15.70;99.90
30399;DHT22;17195;50.838;7.214;2023-09-19T04:30:39;15.70;99.90
30399;DHT22;17195;50.838;7.214;2023-09-19T04:33:08;15.70;99.90
30399;DHT22;17195;50.838;7.214;2023-09-19T04:35:33;15.70;99.90
30399;DHT22;17195;50.838;7.214;2023-09-19T04:37:59;15.60;99.90
30399;DHT22;17195;50.838;7.214;2023-09-19T04:40:25;15.50;99.90
30399;DHT22;17195;50.838;7.214;2023-09-19T04:42:56;15.50;99.90
30399;DHT22;17195;50.838;7.214;2023-09-19T04:45:25;15.50;99.90
30399;DHT22;17195;50.838;7.214;2023-09-19T04:47:51;15.40;99.90
30399;DHT22;17195;50.838;7.214;2023-09-19T04:50:17;15.30;99.90
30399;DHT22;17195;50.838;7.214;2023-09-19T04:52:44;15.30;99.90
30399;DHT22;17195;50.838;7.214;2023-09-19T04:55:13;15.20;99.90
30399;DHT22;17195;50.838;7.214;2023-09-19T04:57:42;15.20;99.90
30399;DHT22;17195;50.838;7.214;2023-09-19T05:00:08;15.10;99.90
30399;DHT22;17195;50.838;7.214;2023-09-19T05:02:40;15.00;99.90
30399;DHT22;17195;50.838;7.214;2023-09-19T05:05:07;14.90;99.90
30399;DHT22;17195;50.838;7.214;2023-09-19T05:07:33;14.90;99.90
30399;DHT22;17195;50.838;7.214;2023-09-19T05:09:59;14.80;99.90
30399;DHT22;17195;50.838;7.214;2023-09-19T05:12:26;14.80;99.90
30399;DHT22;17195;50.838;7.214;2023-09-19T05:14:52;14.70;99.90
30399;DHT22;17195;50.838;7.214;2023-09-19T05:17:18;14.70;99.90
30399;DHT22;17195;50.838;7.214;2023-09-19T05:19:43;14.60;99.90
30399;DHT22;17195;50.838;7.214;2023-09-19T05:22:09;14.50;99.90
30399;DHT22;17195;50.838;7.214;2023-09-19T05:24:34;14.40;99.90
30399;DHT22;17195;50.838;7.214;2023-09-19T05:27:00;14.40;99.90
30399;DHT22;17195;50.838;7.214;2023-09-19T05:29:26;14.30;99.90
30399;DHT22;17195;50.838;7.214;2023-09-19T05:31:52;14.30;99.90
30399;DHT22;17195;50.838;7.214;2023-09-19T05:34:20;14.20;99.90
30399;DHT22;17195;50.838;7.214;2023-09-19T05:36:45;14.30;99.90
30399;DHT22;17195;50.838;7.214;2023-09-19T05:39:11;14.30;99.90
30399;DHT22;17195;50.838;7.214;2023-09-19T05:41:37;14.20;99.90
30399;DHT22;17195;50.838;7.214;2023-09-19T05:44:05;14.20;99.90
30399;DHT22;17195;50.838;7.214;2023-09-19T05:46:32;14.20;99.90
30399;DHT22;17195;50.838;7.214;2023-09-19T05:48:58;14.20;99.90
30399;DHT22;17195;50.838;7.214;2023-09-19T05:51:23;14.20;99.90
30399;DHT22;17195;50.838;7.214;2023-09-19T05:53:49;14.20;99.90
30399;DHT22;17195;50.838;7.214;2023-09-19T05:56:15;14.20;99.90
30399;DHT22;17195;50.838;7.214;2023-09-19T05:58:41;14.30;99.90
30399;DHT22;17195;50.838;7.214;2023-09-19T06:01:10;14.30;99.90
30399;DHT22;17195;50.838;7.214;2023-09-19T06:03:35;14.30;99.90
30399;DHT22;17195;50.838;7.214;2023-09-19T06:06:04;14.30;99.90
30399;DHT22;17195;50.838;7.214;2023-09-19T06:08:32;14.30;99.90
30399;DHT22;17195;50.838;7.214;2023-09-19T06:10:59;14.30;99.90
30399;DHT22;17195;50.838;7.214;2023-09-19T06:13:25;14.40;99.90
30399;DHT22;17195;50.838;7.214;2023-09-19T06:15:52;14.40;99.90
30399;DHT22;17195;50.838;7.214;2023-09-19T06:18:17;14.40;99.90
30399;DHT22;17195;50.838;7.214;2023-09-19T06:20:48;14.40;99.90
30399;DHT22;17195;50.838;7.214;2023-09-19T06:23:16;14.40;99.90
30399;DHT22;17195;50.838;7.214;2023-09-19T06:25:42;14.40;99.90
30399;DHT22;17195;50.838;7.214;2023-09-19T06:28:09;14.50;99.90
30399;DHT22;17195;50.838;7.214;2023-09-19T06:30:37;14.50;99.90
30399;DHT22;17195;50.838;7.214;2023-09-19T06:33:05;14.60;99.90
30399;DHT22;17195;50.838;7.214;2023-09-19T06:35:33;14.60;99.90
30399;DHT22;17195;50.838;7.214;2023-09-19T06:37:58;14.60;99.90
30399;DHT22;17195;50.838;7.214;2023-09-19T06:40:24;14.60;99.90
30399;DHT22;17195;50.838;7.214;2023-09-19T06:42:53;14.60;99.90
30399;DHT22;17195;50.838;7.214;2023-09-19T06:45:19;14.70;99.90
30399;DHT22;17195;50.838;7.214;2023-09-19T06:47:45;14.60;99.90
30399;DHT22;17195;50.838;7.214;2023-09-19T06:50:14;14.70;99.90
30399;DHT22;17195;50.838;7.214;2023-09-19T06:52:41;14.70;99.90
30399;DHT22;17195;50.838;7.214;2023-09-19T06:55:07;14.70;99.90
30399;DHT22;17195;50.838;7.214;2023-09-19T06:57:33;14.80;99.90
30399;DHT22;17195;50.838;7.214;2023-09-19T06:59:58;14.80;99.90
30399;DHT22;17195;50.838;7.214;2023-09-19T07:02:24;14.80;99.90
30399;DHT22;17195;50.838;7.214;2023-09-19T07:04:49;14.90;99.90
30399;DHT22;17195;50.838;7.214;2023-09-19T07:07:15;14.90;99.90
30399;DHT22;17195;50.838;7.214;2023-09-19T07:09:41;15.00;99.90
30399;DHT22;17195;50.838;7.214;2023-09-19T07:12:07;15.00;99.90
30399;DHT22;17195;50.838;7.214;2023-09-19T07:14:33;15.10;99.90
30399;DHT22;17195;50.838;7.214;2023-09-19T07:16:59;15.10;99.90
30399;DHT22;17195;50.838;7.214;2023-09-19T07:19:26;15.20;99.90
30399;DHT22;17195;50.838;7.214;2023-09-19T07:21:53;15.30;99.90
30399;DHT22;17195;50.838;7.214;2023-09-19T07:24:19;15.40;99.90
30399;DHT22;17195;50.838;7.214;2023-09-19T07:26:47;15.50;99.90
30399;DHT22;17195;50.838;7.214;2023-09-19T07:29:13;15.60;99.90
30399;DHT22;17195;50.838;7.214;2023-09-19T07:31:39;15.70;99.90
30399;DHT22;17195;50.838;7.214;2023-09-19T07:34:04;15.70;99.90
30399;DHT22;17195;50.838;7.214;2023-09-19T07:36:30;15.80;99.90
30399;DHT22;17195;50.838;7.214;2023-09-19T07:38:57;15.90;99.90
30399;DHT22;17195;50.838;7.214;2023-09-19T07:41:24;16.00;99.90
30399;DHT22;17195;50.838;7.214;2023-09-19T07:43:49;16.00;99.90
30399;DHT22;17195;50.838;7.214;2023-09-19T07:46:15;16.20;99.90
30399;DHT22;17195;50.838;7.214;2023-09-19T07:48:40;16.30;99.90
30399;DHT22;17195;50.838;7.214;2023-09-19T07:51:07;16.30;99.90
30399;DHT22;17195;50.838;7.214;2023-09-19T07:53:34;16.40;99.90
30399;DHT22;17195;50.838;7.214;2023-09-19T07:56:04;16.50;99.90
30399;DHT22;17195;50.838;7.214;2023-09-19T07:58:30;16.50;99.90
30399;DHT22;17195;50.838;7.214;2023-09-19T08:01:01;16.60;99.90
30399;DHT22;17195;50.838;7.214;2023-09-19T08:03:27;16.70;99.90
30399;DHT22;17195;50.838;7.214;2023-09-19T08:05:52;16.80;99.90
30399;DHT22;17195;50.838;7.214;2023-09-19T08:08:18;16.80;99.90
30399;DHT22;17195;50.838;7.214;2023-09-19T08:10:43;16.90;99.90
30399;DHT22;17195;50.838;7.214;2023-09-19T08:13:14;17.00;99.90
30399;DHT22;17195;50.838;7.214;2023-09-19T08:15:45;17.10;99.90
30399;DHT22;17195;50.838;7.214;2023-09-19T08:18:10;17.00;99.90
30399;DHT22;17195;50.838;7.214;2023-09-19T08:20:37;17.10;99.90
30399;DHT22;17195;50.838;7.214;2023-09-19T08:23:03;17.10;99.90
30399;DHT22;17195;50.838;7.214;2023-09-19T08:25:29;17.10;99.90
30399;DHT22;17195;50.838;7.214;2023-09-19T08:27:55;17.10;99.90
30399;DHT22;17195;50.838;7.214;2023-09-19T08:30:25;17.10;99.90
30399;DHT22;17195;50.838;7.214;2023-09-19T08:32:59;17.20;99.90
30399;DHT22;17195;50.838;7.214;2023-09-19T08:35:25;17.20;99.90
30399;DHT22;17195;50.838;7.214;2023-09-19T08:37:50;17.30;99.90
30399;DHT22;17195;50.838;7.214;2023-09-19T08:40:17;17.40;99.90
30399;DHT22;17195;50.838;7.214;2023-09-19T08:42:53;17.50;99.90
30399;DHT22;17195;50.838;7.214;2023-09-19T08:45:23;17.60;99.90
30399;DHT22;17195;50.838;7.214;2023-09-19T08:50:50;17.80;99.90
30399;DHT22;17195;50.838;7.214;2023-09-19T08:53:30;17.80;99.90
30399;DHT22;17195;50.838;7.214;2023-09-19T08:55:58;17.80;99.90
30399;DHT22;17195;50.838;7.214;2023-09-19T08:58:31;17.80;99.90
30399;DHT22;17195;50.838;7.214;2023-09-19T09:01:01;17.70;99.90
30399;DHT22;17195;50.838;7.214;2023-09-19T09:03:29;17.70;99.90
30399;DHT22;17195;50.838;7.214;2023-09-19T09:05:57;17.70;99.90
30399;DHT22;17195;50.838;7.214;2023-09-19T09:08:24;17.80;99.90
30399;DHT22;17195;50.838;7.214;2023-09-19T09:10:50;17.90;99.90
30399;DHT22;17195;50.838;7.214;2023-09-19T09:13:16;18.00;99.90
30399;DHT22;17195;50.838;7.214;2023-09-19T09:15:43;18.10;99.90
30399;DHT22;17195;50.838;7.214;2023-09-19T09:18:10;18.20;99.90
30399;DHT22;17195;50.838;7.214;2023-09-19T09:20:36;18.20;99.90
30399;DHT22;17195;50.838;7.214;2023-09-19T09:23:01;18.30;99.90
30399;DHT22;17195;50.838;7.214;2023-09-19T09:25:53;18.40;99.90
30399;DHT22;17195;50.838;7.214;2023-09-19T09:28:24;18.40;99.90
30399;DHT22;17195;50.838;7.214;2023-09-19T09:30:50;18.50;99.90
30399;DHT22;17195;50.838;7.214;2023-09-19T09:33:17;18.50;99.90
30399;DHT22;17195;50.838;7.214;2023-09-19T09:35:54;18.50;99.90
30399;DHT22;17195;50.838;7.214;2023-09-19T09:38:23;18.50;99.90
30399;DHT22;17195;50.838;7.214;2023-09-19T09:41:00;18.70;99.90
30399;DHT22;17195;50.838;7.214;2023-09-19T09:43:40;18.70;99.90
30399;DHT22;17195;50.838;7.214;2023-09-19T09:51:42;18.80;99.90
30399;DHT22;17195;50.838;7.214;2023-09-19T09:54:16;18.80;99.90
30399;DHT22;17195;50.838;7.214;2023-09-19T09:57:12;19.00;99.90
30399;DHT22;17195;50.838;7.214;2023-09-19T09:59:53;19.00;99.90
30399;DHT22;17195;50.838;7.214;2023-09-19T10:02:30;19.00;99.90
30399;DHT22;17195;50.838;7.214;2023-09-19T10:05:20;19.10;99.90
30399;DHT22;17195;50.838;7.214;2023-09-19T10:07:46;19.20;99.90
30399;DHT22;17195;50.838;7.214;2023-09-19T10:10:30;19.20;99.90
30399;DHT22;17195;50.838;7.214;2023-09-19T10:13:12;19.20;99.90
30399;DHT22;17195;50.838;7.214;2023-09-19T10:15:39;19.10;99.90
30399;DHT22;17195;50.838;7.214;2023-09-19T10:18:11;19.20;99.90
30399;DHT22;17195;50.838;7.214;2023-09-19T10:20:43;19.20;99.90
30399;DHT22;17195;50.838;7.214;2023-09-19T10:23:11;19.40;99.90
30399;DHT22;17195;50.838;7.214;2023-09-19T10:25:42;19.40;99.90
30399;DHT22;17195;50.838;7.214;2023-09-19T10:28:14;19.60;99.90
30399;DHT22;17195;50.838;7.214;2023-09-19T10:30:43;19.70;99.90
30399;DHT22;17195;50.838;7.214;2023-09-19T10:33:11;19.70;99.90
30399;DHT22;17195;50.838;7.214;2023-09-19T10:35:42;19.50;99.90
30399;DHT22;17195;50.838;7.214;2023-09-19T10:38:18;19.70;99.90
30399;DHT22;17195;50.838;7.214;2023-09-19T10:40:51;19.90;99.90
30399;DHT22;17195;50.838;7.214;2023-09-19T10:43:19;20.00;99.90
30399;DHT22;17195;50.838;7.214;2023-09-19T10:45:47;20.10;99.90
30399;DHT22;17195;50.838;7.214;2023-09-19T10:48:16;20.30;99.90
30399;DHT22;17195;50.838;7.214;2023-09-19T10:51:08;20.40;99.90
30399;DHT22;17195;50.838;7.214;2023-09-19T10:54:08;20.50;99.90
30399;DHT22;17195;50.838;7.214;2023-09-19T10:56:43;20.60;99.90
30399;DHT22;17195;50.838;7.214;2023-09-19T10:59:16;20.50;99.90
30399;DHT22;17195;50.838;7.214;2023-09-19T11:01:50;20.60;99.90
30399;DHT22;17195;50.838;7.214;2023-09-19T11:04:22;20.60;99.90
30399;DHT22;17195;50.838;7.214;2023-09-19T11:07:06;20.80;99.90
30399;DHT22;17195;50.838;7.214;2023-09-19T11:09:50;20.70;99.90
30399;DHT22;17195;50.838;7.214;2023-09-19T11:12:47;20.60;99.90
30399;DHT22;17195;50.838;7.214;2023-09-19T11:26:48;20.90;99.90
30399;DHT22;17195;50.838;7.214;2023-09-19T11:29:27;21.10;99.90
30399;DHT22;17195;50.838;7.214;2023-09-19T11:31:54;21.00;99.90
30399;DHT22;17195;50.838;7.214;2023-09-19T11:39:39;21.00;99.90
30399;DHT22;17195;50.838;7.214;2023-09-19T11:48:14;21.10;99.90
30399;DHT22;17195;50.838;7.214;2023-09-19T11:50:44;20.90;99.90
30399;DHT22;17195;50.838;7.214;2023-09-19T11:53:14;20.70;99.90
30399;DHT22;17195;50.838;7.214;2023-09-19T11:55:42;20.60;99.90
30399;DHT22;17195;50.838;7.214;2023-09-19T11:58:09;20.70;99.90
30399;DHT22;17195;50.838;7.214;2023-09-19T12:00:35;20.90;99.90
30399;DHT22;17195;50.838;7.214;2023-09-19T12:03:08;21.10;99.90
30399;DHT22;17195;50.838;7.214;2023-09-19T12:05:35;21.30;99.90
30399;DHT22;17195;50.838;7.214;2023-09-19T12:08:03;21.20;99.90
30399;DHT22;17195;50.838;7.214;2023-09-19T12:10:29;21.20;99.90
30399;DHT22;17195;50.838;7.214;2023-09-19T12:12:55;21.20;99.90
30399;DHT22;17195;50.838;7.214;2023-09-19T12:15:28;21.30;99.90
30399;DHT22;17195;50.838;7.214;2023-09-19T12:17:59;21.30;99.90
30399;DHT22;17195;50.838;7.214;2023-09-19T12:20:25;21.50;99.90
30399;DHT22;17195;50.838;7.214;2023-09-19T12:22:50;21.50;99.90
30399;DHT22;17195;50.838;7.214;2023-09-19T12:25:16;21.40;99.90
30399;DHT22;17195;50.838;7.214;2023-09-19T12:27:50;21.40;99.90
30399;DHT22;17195;50.838;7.214;2023-09-19T12:30:19;21.50;99.90
30399;DHT22;17195;50.838;7.214;2023-09-19T12:32:46;21.60;99.90
30399;DHT22;17195;50.838;7.214;2023-09-19T12:35:31;21.50;99.90
30399;DHT22;17195;50.838;7.214;2023-09-19T12:38:00;21.30;99.90
30399;DHT22;17195;50.838;7.214;2023-09-19T12:40:26;21.40;99.90
30399;DHT22;17195;50.838;7.214;2023-09-19T12:42:54;21.30;99.90
30399;DHT22;17195;50.838;7.214;2023-09-19T12:45:32;21.30;99.90
30399;DHT22;17195;50.838;7.214;2023-09-19T12:48:23;21.50;99.90
30399;DHT22;17195;50.838;7.214;2023-09-19T12:51:13;21.60;99.70
30399;DHT22;17195;50.838;7.214;2023-09-19T12:53:45;21.70;99.80
30399;DHT22;17195;50.838;7.214;2023-09-19T12:56:16;21.70;99.90
30399;DHT22;17195;50.838;7.214;2023-09-19T13:01:22;21.90;99.70
30399;DHT22;17195;50.838;7.214;2023-09-19T13:04:13;22.10;99.40
30399;DHT22;17195;50.838;7.214;2023-09-19T13:06:40;22.30;98.70
30399;DHT22;17195;50.838;7.214;2023-09-19T13:09:09;22.30;98.20
30399;DHT22;17195;50.838;7.214;2023-09-19T13:11:39;22.50;98.00
30399;DHT22;17195;50.838;7.214;2023-09-19T13:14:22;22.50;98.30
30399;DHT22;17195;50.838;7.214;2023-09-19T13:19:36;22.70;98.00
30399;DHT22;17195;50.838;7.214;2023-09-19T13:22:02;22.80;97.10
30399;DHT22;17195;50.838;7.214;2023-09-19T13:24:28;22.80;97.60
30399;DHT22;17195;50.838;7.214;2023-09-19T13:26:56;22.80;98.20
30399;DHT22;17195;50.838;7.214;2023-09-19T13:29:22;22.90;97.20
30399;DHT22;17195;50.838;7.214;2023-09-19T13:31:52;22.90;97.20
30399;DHT22;17195;50.838;7.214;2023-09-19T13:34:21;22.80;96.60
30399;DHT22;17195;50.838;7.214;2023-09-19T13:36:46;22.80;96.70
30399;DHT22;17195;50.838;7.214;2023-09-19T13:39:16;22.70;96.40
30399;DHT22;17195;50.838;7.214;2023-09-19T13:41:44;22.70;97.20
30399;DHT22;17195;50.838;7.214;2023-09-19T13:44:11;22.70;97.50
30399;DHT22;17195;50.838;7.214;2023-09-19T13:46:37;22.70;97.10
30399;DHT22;17195;50.838;7.214;2023-09-19T13:49:03;22.80;96.50
30399;DHT22;17195;50.838;7.214;2023-09-19T13:51:31;22.80;96.80
30399;DHT22;17195;50.838;7.214;2023-09-19T13:53:58;22.70;96.50
30399;DHT22;17195;50.838;7.214;2023-09-19T13:56:25;22.70;97.10
30399;DHT22;17195;50.838;7.214;2023-09-19T13:58:55;22.70;96.30
30399;DHT22;17195;50.838;7.214;2023-09-19T14:01:21;22.90;95.80
30399;DHT22;17195;50.838;7.214;2023-09-19T14:03:47;22.90;95.90
30399;DHT22;17195;50.838;7.214;2023-09-19T14:06:16;23.10;96.50
30399;DHT22;17195;50.838;7.214;2023-09-19T14:08:43;23.30;96.10
30399;DHT22;17195;50.838;7.214;2023-09-19T14:11:09;23.30;95.90
30399;DHT22;17195;50.838;7.214;2023-09-19T14:13:35;23.40;95.50
30399;DHT22;17195;50.838;7.214;2023-09-19T14:16:05;23.60;95.20
30399;DHT22;17195;50.838;7.214;2023-09-19T14:18:31;23.70;95.30
30399;DHT22;17195;50.838;7.214;2023-09-19T14:20:57;23.60;94.90
30399;DHT22;17195;50.838;7.214;2023-09-19T14:23:22;23.60;95.20
30399;DHT22;17195;50.838;7.214;2023-09-19T14:25:50;23.60;94.90
30399;DHT22;17195;50.838;7.214;2023-09-19T14:28:15;23.90;95.40
30399;DHT22;17195;50.838;7.214;2023-09-19T14:30:41;23.90;95.30
30399;DHT22;17195;50.838;7.214;2023-09-19T14:33:06;24.10;94.50
30399;DHT22;17195;50.838;7.214;2023-09-19T14:35:32;23.90;94.80
30399;DHT22;17195;50.838;7.214;2023-09-19T14:37:58;23.80;94.60
30399;DHT22;17195;50.838;7.214;2023-09-19T14:40:23;23.60;94.50
30399;DHT22;17195;50.838;7.214;2023-09-19T14:42:49;23.60;94.50
30399;DHT22;17195;50.838;7.214;2023-09-19T14:45:15;23.40;94.60
30399;DHT22;17195;50.838;7.214;2023-09-19T14:50:10;23.10;94.60
30399;DHT22;17195;50.838;7.214;2023-09-19T14:52:37;22.70;94.70
30399;DHT22;17195;50.838;7.214;2023-09-19T14:55:03;22.60;94.90
30399;DHT22;17195;50.838;7.214;2023-09-19T14:57:30;22.50;95.00
30399;DHT22;17195;50.838;7.214;2023-09-19T14:59:55;22.60;95.50
30399;DHT22;17195;50.838;7.214;2023-09-19T15:02:21;22.50;95.20
30399;DHT22;17195;50.838;7.214;2023-09-19T15:04:46;22.50;95.40
30399;DHT22;17195;50.838;7.214;2023-09-19T15:07:15;22.60;95.30
30399;DHT22;17195;50.838;7.214;2023-09-19T15:09:41;22.50;94.90
30399;DHT22;17195;50.838;7.214;2023-09-19T15:12:07;22.60;95.00
30399;DHT22;17195;50.838;7.214;2023-09-19T15:14:33;22.50;95.00
30399;DHT22;17195;50.838;7.214;2023-09-19T15:16:58;22.40;95.70
30399;DHT22;17195;50.838;7.214;2023-09-19T15:19:24;22.40;95.90
30399;DHT22;17195;50.838;7.214;2023-09-19T15:21:49;22.40;95.50
30399;DHT22;17195;50.838;7.214;2023-09-19T15:24:15;22.30;95.10
30399;DHT22;17195;50.838;7.214;2023-09-19T15:26:41;22.40;95.50
30399;DHT22;17195;50.838;7.214;2023-09-19T15:29:09;22.70;95.00
30399;DHT22;17195;50.838;7.214;2023-09-19T15:31:35;22.80;95.00
30399;DHT22;17195;50.838;7.214;2023-09-19T15:34:05;22.60;94.90
30399;DHT22;17195;50.838;7.214;2023-09-19T15:36:32;22.60;95.00
30399;DHT22;17195;50.838;7.214;2023-09-19T15:41:26;22.80;95.10
30399;DHT22;17195;50.838;7.214;2023-09-19T15:43:52;23.00;94.90
30399;DHT22;17195;50.838;7.214;2023-09-19T15:46:19;22.50;94.90
30399;DHT22;17195;50.838;7.214;2023-09-19T15:48:44;22.10;95.60
30399;DHT22;17195;50.838;7.214;2023-09-19T15:51:11;21.80;96.00
30399;DHT22;17195;50.838;7.214;2023-09-19T15:53:55;21.40;96.50
30399;DHT22;17195;50.838;7.214;2023-09-19T15:56:22;21.20;97.00
30399;DHT22;17195;50.838;7.214;2023-09-19T15:58:52;21.10;97.20
30399;DHT22;17195;50.838;7.214;2023-09-19T16:01:19;21.00;97.20
30399;DHT22;17195;50.838;7.214;2023-09-19T16:03:52;21.00;97.50
30399;DHT22;17195;50.838;7.214;2023-09-19T16:06:26;20.80;98.10
30399;DHT22;17195;50.838;7.214;2023-09-19T16:08:58;20.80;98.10
30399;DHT22;17195;50.838;7.214;2023-09-19T16:11:25;20.70;98.40
30399;DHT22;17195;50.838;7.214;2023-09-19T16:13:52;20.80;99.00
30399;DHT22;17195;50.838;7.214;2023-09-19T16:16:20;20.80;98.50
30399;DHT22;17195;50.838;7.214;2023-09-19T16:18:49;20.70;98.50
30399;DHT22;17195;50.838;7.214;2023-09-19T16:21:16;20.60;98.90
30399;DHT22;17195;50.838;7.214;2023-09-19T16:23:47;20.60;98.90
30399;DHT22;17195;50.838;7.214;2023-09-19T16:26:13;20.60;99.30
30399;DHT22;17195;50.838;7.214;2023-09-19T16:28:40;20.60;99.10
30399;DHT22;17195;50.838;7.214;2023-09-19T16:31:07;20.60;99.30
30399;DHT22;17195;50.838;7.214;2023-09-19T16:33:38;20.60;99.50
30399;DHT22;17195;50.838;7.214;2023-09-19T16:36:18;20.50;99.70
30399;DHT22;17195;50.838;7.214;2023-09-19T16:38:46;20.50;99.90